Time,TemperatureF,DewpointF,PressureIn,WindDirection,WindDirectionDegrees,WindSpeedMPH,WindSpeedGustMPH,Humidity,HourlyPrecipIn,Conditions,Clouds,dailyrainin,SoftwareType,DateUTC
2014-04-16 00:00:00,49.6,47.4,29.89,SE,124,3.0,3.0,92,0.00,,,0.00,Wunderground v.1.15,2014-04-16 07:00:00,
2014-04-16 00:05:00,49.6,47.7,29.89,SE,124,2.0,3.0,93,0.00,,,0.00,Wunderground v.1.15,2014-04-16 07:05:00,
2014-04-16 00:15:00,49.5,47.3,29.89,ESE,120,0.0,1.0,92,0.00,,,0.00,Wunderground v.1.15,2014-04-16 07:15:00,
2014-04-16 00:25:00,49.1,46.9,29.89,ESE,120,0.0,0.0,92,0.00,,,0.00,Wunderground v.1.15,2014-04-16 07:25:00,
2014-04-16 00:30:00,49.1,46.9,29.89,ESE,120,0.0,0.0,92,0.00,,,0.00,Wunderground v.1.15,2014-04-16 07:30:00,
2014-04-16 00:40:00,49.2,47.3,29.88,ESE,120,0.0,0.0,93,0.00,,,0.00,Wunderground v.1.15,2014-04-16 07:40:00,
2014-04-16 00:50:00,49.4,47.5,29.88,ESE,120,0.0,0.0,93,0.00,,,0.00,Wunderground v.1.15,2014-04-16 07:50:00,
2014-04-16 00:55:00,49.4,47.5,29.88,ESE,120,0.0,0.0,93,0.00,,,0.00,Wunderground v.1.15,2014-04-16 07:55:00,
2014-04-16 01:05:00,49.3,47.4,29.89,ESE,120,0.0,0.0,93,0.00,,,0.00,Wunderground v.1.15,2014-04-16 08:05:00,
2014-04-16 01:15:00,49.1,47.4,29.89,ESE,120,0.0,0.0,94,0.00,,,0.00,Wunderground v.1.15,2014-04-16 08:15:00,
2014-04-16 01:20:00,49.2,47.3,29.88,ESE,120,0.0,0.0,93,0.00,,,0.00,Wunderground v.1.15,2014-04-16 08:20:00,
2014-04-16 01:30:00,49.4,47.5,29.87,ESE,120,0.0,0.0,93,0.00,,,0.00,Wunderground v.1.15,2014-04-16 08:30:00,
2014-04-16 01:40:00,49.3,47.1,29.88,ESE,120,1.0,1.0,92,0.00,,,0.00,Wunderground v.1.15,2014-04-16 08:40:00,
2014-04-16 01:45:00,49.0,46.8,29.88,ESE,120,1.0,1.0,92,0.00,,,0.00,Wunderground v.1.15,2014-04-16 08:45:00,
2014-04-16 01:50:00,48.9,46.7,29.88,ESE,120,0.0,0.0,92,0.00,,,0.00,Wunderground v.1.15,2014-04-16 08:50:00,
2014-04-16 02:00:00,48.5,46.0,29.88,ESE,120,0.0,0.0,91,0.00,,,0.00,Wunderground v.1.15,2014-04-16 09:00:00,
2014-04-16 02:10:00,48.2,46.3,29.88,ESE,120,0.0,0.0,93,0.00,,,0.00,Wunderground v.1.15,2014-04-16 09:10:00,
2014-04-16 02:20:00,48.1,45.9,29.88,ESE,120,0.0,0.0,92,0.00,,,0.00,Wunderground v.1.15,2014-04-16 09:20:00,
2014-04-16 02:25:00,47.9,46.0,29.88,ESE,120,0.0,0.0,93,0.00,,,0.00,Wunderground v.1.15,2014-04-16 09:25:00,
2014-04-16 02:35:00,48.2,46.6,29.88,ESE,120,0.0,0.0,94,0.00,,,0.00,Wunderground v.1.15,2014-04-16 09:35:00,
2014-04-16 02:40:00,48.6,47.2,29.88,ESE,120,0.0,0.0,95,0.00,,,0.00,Wunderground v.1.15,2014-04-16 09:40:00,
2014-04-16 02:50:00,48.7,46.8,29.88,ESE,120,0.0,0.0,93,0.00,,,0.00,Wunderground v.1.15,2014-04-16 09:50:00,
2014-04-16 03:00:00,48.4,46.2,29.88,ESE,120,0.0,0.0,92,0.00,,,0.00,Wunderground v.1.15,2014-04-16 10:00:00,
2014-04-16 03:10:00,48.3,46.7,29.88,ESE,120,0.0,0.0,94,0.00,,,0.00,Wunderground v.1.15,2014-04-16 10:10:00,
2014-04-16 03:15:00,48.6,47.0,29.87,ESE,120,0.0,0.0,94,0.00,,,0.00,Wunderground v.1.15,2014-04-16 10:15:00,
2014-04-16 03:25:00,48.6,46.7,29.87,ESE,120,0.0,0.0,93,0.00,,,0.00,Wunderground v.1.15,2014-04-16 10:25:00,
2014-04-16 03:30:00,48.5,46.3,29.87,ESE,120,0.0,0.0,92,0.00,,,0.00,Wunderground v.1.15,2014-04-16 10:30:00,
2014-04-16 03:40:00,48.5,46.3,29.87,ESE,120,0.0,0.0,92,0.00,,,0.00,Wunderground v.1.15,2014-04-16 10:40:00,
2014-04-16 03:50:00,48.2,46.0,29.87,ESE,120,0.0,0.0,92,0.00,,,0.00,Wunderground v.1.15,2014-04-16 10:50:00,
2014-04-16 04:00:00,47.8,45.3,29.87,ESE,120,0.0,0.0,91,0.00,,,0.00,Wunderground v.1.15,2014-04-16 11:00:00,
2014-04-16 04:10:00,48.2,45.4,29.87,ESE,120,0.0,0.0,90,0.00,,,0.00,Wunderground v.1.15,2014-04-16 11:10:00,
2014-04-16 04:15:00,48.2,45.1,29.87,ESE,120,0.0,0.0,89,0.00,,,0.00,Wunderground v.1.15,2014-04-16 11:15:00,
2014-04-16 04:20:00,48.2,45.1,29.87,ESE,120,0.0,0.0,89,0.00,,,0.00,Wunderground v.1.15,2014-04-16 11:20:00,
2014-04-16 04:30:00,48.6,45.2,29.87,ESE,120,0.0,0.0,88,0.00,,,0.00,Wunderground v.1.15,2014-04-16 11:30:00,
2014-04-16 04:40:00,49.1,46.0,29.87,ESE,120,0.0,0.0,89,0.00,,,0.00,Wunderground v.1.15,2014-04-16 11:40:00,
2014-04-16 04:50:00,48.9,45.8,29.87,ESE,120,0.0,0.0,89,0.00,,,0.00,Wunderground v.1.15,2014-04-16 11:50:00,
2014-04-16 04:55:00,49.0,45.6,29.87,ESE,120,0.0,0.0,88,0.00,,,0.00,Wunderground v.1.15,2014-04-16 11:55:00,
2014-04-16 05:00:00,49.0,45.6,29.87,ESE,120,0.0,0.0,88,0.00,,,0.00,Wunderground v.1.15,2014-04-16 12:00:00,
2014-04-16 05:10:00,49.1,45.4,29.87,ESE,120,0.0,0.0,87,0.00,,,0.00,Wunderground v.1.15,2014-04-16 12:10:00,
2014-04-16 05:20:00,49.1,45.4,29.87,West,277,0.0,0.0,87,0.00,,,0.00,Wunderground v.1.15,2014-04-16 12:20:00,
2014-04-16 05:30:00,49.1,45.4,29.87,West,277,0.0,0.0,87,0.00,,,0.00,Wunderground v.1.15,2014-04-16 12:30:00,
2014-04-16 05:35:00,49.2,45.2,29.87,West,277,0.0,0.0,86,0.00,,,0.00,Wunderground v.1.15,2014-04-16 12:35:00,
2014-04-16 05:40:00,49.0,45.0,29.87,West,277,0.0,0.0,86,0.00,,,0.00,Wunderground v.1.15,2014-04-16 12:40:00,
2014-04-16 05:50:00,48.5,44.2,29.87,West,277,0.0,0.0,85,0.00,,,0.00,Wunderground v.1.15,2014-04-16 12:50:00,
2014-04-16 06:00:00,47.6,43.9,29.87,NNE,32,0.0,3.0,87,0.00,,,0.00,Wunderground v.1.15,2014-04-16 13:00:00,
2014-04-16 06:10:00,47.8,43.8,29.87,North,9,1.0,1.0,86,0.00,,,0.00,Wunderground v.1.15,2014-04-16 13:10:00,
2014-04-16 06:20:00,48.2,43.9,29.87,North,349,1.0,1.0,85,0.00,,,0.00,Wunderground v.1.15,2014-04-16 13:20:00,
2014-04-16 06:25:00,48.6,44.0,29.87,North,349,1.0,2.0,84,0.00,,,0.00,Wunderground v.1.15,2014-04-16 13:25:00,
2014-04-16 06:30:00,48.9,44.3,29.87,NNE,31,2.0,4.0,84,0.00,,,0.00,Wunderground v.1.15,2014-04-16 13:30:00,
2014-04-16 06:40:00,49.4,44.8,29.87,NNE,30,3.0,3.0,84,0.00,,,0.00,Wunderground v.1.15,2014-04-16 13:40:00,
2014-04-16 06:50:00,49.1,44.5,29.87,NNE,30,2.0,2.0,84,0.00,,,0.00,Wunderground v.1.15,2014-04-16 13:50:00,
2014-04-16 07:00:00,49.4,44.8,29.88,NNE,30,1.0,1.0,84,0.00,,,0.00,Wunderground v.1.15,2014-04-16 14:00:00,
2014-04-16 07:05:00,49.5,44.9,29.88,NNW,342,0.0,1.0,84,0.00,,,0.00,Wunderground v.1.15,2014-04-16 14:05:00,
2014-04-16 07:15:00,49.6,45.0,29.88,NNW,339,0.0,1.0,84,0.00,,,0.00,Wunderground v.1.15,2014-04-16 14:15:00,
2014-04-16 07:20:00,49.6,45.0,29.89,NNW,339,0.0,0.0,84,0.00,,,0.00,Wunderground v.1.15,2014-04-16 14:20:00,
2014-04-16 07:30:00,50.2,45.9,29.89,NW,309,0.0,0.0,85,0.00,,,0.00,Wunderground v.1.15,2014-04-16 14:30:00,
2014-04-16 07:40:00,51.1,46.4,29.89,NW,309,0.0,0.0,84,0.00,,,0.00,Wunderground v.1.15,2014-04-16 14:40:00,
2014-04-16 07:50:00,51.7,47.0,29.89,NW,309,0.0,0.0,84,0.00,,,0.00,Wunderground v.1.15,2014-04-16 14:50:00,
2014-04-16 07:55:00,51.9,47.2,29.89,NW,309,0.0,0.0,84,0.00,,,0.00,Wunderground v.1.15,2014-04-16 14:55:00,
2014-04-16 08:05:00,52.5,47.2,29.89,NW,309,0.0,0.0,82,0.00,,,0.00,Wunderground v.1.15,2014-04-16 15:05:00,
2014-04-16 08:10:00,52.8,47.1,29.89,NW,309,0.0,0.0,81,0.00,,,0.00,Wunderground v.1.15,2014-04-16 15:10:00,
2014-04-16 08:20:00,53.4,48.0,29.89,SSW,200,0.0,0.0,82,0.00,,,0.00,Wunderground v.1.15,2014-04-16 15:20:00,
2014-04-16 08:30:00,53.8,48.4,29.89,South,169,0.0,0.0,82,0.00,,,0.00,Wunderground v.1.15,2014-04-16 15:30:00,
2014-04-16 08:35:00,54.1,48.1,29.89,SSW,205,0.0,0.0,80,0.00,,,0.00,Wunderground v.1.15,2014-04-16 15:35:00,
2014-04-16 08:45:00,54.1,47.7,29.89,SSW,207,0.0,0.0,79,0.00,,,0.00,Wunderground v.1.15,2014-04-16 15:45:00,
2014-04-16 08:50:00,54.6,49.2,29.89,WSW,249,0.0,0.0,82,0.00,,,0.00,Wunderground v.1.15,2014-04-16 15:50:00,
2014-04-16 09:00:00,56.2,49.8,29.89,West,264,0.0,0.0,79,0.00,,,0.00,Wunderground v.1.15,2014-04-16 16:00:00,
2014-04-16 09:10:00,59.1,51.2,29.89,West,278,0.0,0.0,75,0.00,,,0.00,Wunderground v.1.15,2014-04-16 16:10:00,
2014-04-16 09:20:00,60.5,51.4,29.89,West,281,0.0,0.0,72,0.00,,,0.00,Wunderground v.1.15,2014-04-16 16:20:00,
2014-04-16 09:25:00,61.1,51.2,29.89,West,281,0.0,0.0,70,0.00,,,0.00,Wunderground v.1.15,2014-04-16 16:25:00,
2014-04-16 09:35:00,62.2,51.5,29.89,NW,306,0.0,4.0,68,0.00,,,0.00,Wunderground v.1.15,2014-04-16 16:35:00,
2014-04-16 09:40:00,62.1,51.0,29.89,WNW,302,2.0,4.0,67,0.00,,,0.00,Wunderground v.1.15,2014-04-16 16:40:00,
2014-04-16 09:50:00,61.7,51.4,29.89,NW,317,1.0,1.0,69,0.00,,,0.00,Wunderground v.1.15,2014-04-16 16:50:00,
2014-04-16 10:00:00,62.3,52.4,29.89,West,276,1.0,1.0,70,0.00,,,0.00,Wunderground v.1.15,2014-04-16 17:00:00,
2014-04-16 10:05:00,63.2,52.1,29.89,WSW,257,0.0,5.0,67,0.00,,,0.00,Wunderground v.1.15,2014-04-16 17:05:00,
2014-04-16 10:15:00,63.3,51.3,29.89,WNW,296,1.0,1.0,65,0.00,,,0.00,Wunderground v.1.15,2014-04-16 17:15:00,
2014-04-16 10:20:00,62.9,51.8,29.89,WNW,294,2.0,7.0,67,0.00,,,0.00,Wunderground v.1.15,2014-04-16 17:20:00,
2014-04-16 10:25:00,62.3,52.0,29.90,WNW,288,3.0,7.0,69,0.00,,,0.00,Wunderground v.1.15,2014-04-16 17:25:00,
2014-04-16 10:30:00,62.5,52.2,29.89,West,268,2.0,2.0,69,0.00,,,0.00,Wunderground v.1.15,2014-04-16 17:30:00,
2014-04-16 10:40:00,62.4,51.3,29.90,West,269,3.0,3.0,67,0.00,,,0.00,Wunderground v.1.15,2014-04-16 17:40:00,
2014-04-16 10:50:00,62.9,52.6,29.90,West,275,2.0,2.0,69,0.00,,,0.00,Wunderground v.1.15,2014-04-16 17:50:00,
2014-04-16 11:00:00,62.7,52.0,29.90,NNW,336,3.0,3.0,68,0.00,,,0.00,Wunderground v.1.15,2014-04-16 18:00:00,
2014-04-16 11:05:00,62.9,52.2,29.90,WNW,284,2.0,5.0,68,0.00,,,0.00,Wunderground v.1.15,2014-04-16 18:05:00,
2014-04-16 11:15:00,62.9,51.4,29.90,WNW,300,3.0,5.0,66,0.00,,,0.00,Wunderground v.1.15,2014-04-16 18:15:00,
2014-04-16 11:20:00,62.9,52.6,29.90,West,281,2.0,2.0,69,0.00,,,0.00,Wunderground v.1.15,2014-04-16 18:20:00,
2014-04-16 11:30:00,63.0,53.1,29.90,West,275,2.0,4.0,70,0.00,,,0.00,Wunderground v.1.15,2014-04-16 18:30:00,
2014-04-16 11:40:00,62.4,52.1,29.90,WNW,300,3.0,3.0,69,0.00,,,0.00,Wunderground v.1.15,2014-04-16 18:40:00,
2014-04-16 11:45:00,62.2,52.7,29.90,NW,308,2.0,3.0,71,0.00,,,0.00,Wunderground v.1.15,2014-04-16 18:45:00,
2014-04-16 11:55:00,62.0,52.1,29.89,NNW,332,1.0,5.0,70,0.00,,,0.00,Wunderground v.1.15,2014-04-16 18:55:00,
2014-04-16 12:00:00,61.8,52.3,29.89,NNW,340,2.0,4.0,71,0.00,,,0.00,Wunderground v.1.15,2014-04-16 19:00:00,
2014-04-16 12:10:00,61.6,52.1,29.89,WNW,282,4.0,5.0,71,0.00,,,0.00,Wunderground v.1.15,2014-04-16 19:10:00,
2014-04-16 12:20:00,61.6,52.1,29.89,WNW,293,5.0,5.0,71,0.00,,,0.00,Wunderground v.1.15,2014-04-16 19:20:00,
2014-04-16 12:25:00,61.3,51.8,29.89,West,277,5.0,5.0,71,0.00,,,0.00,Wunderground v.1.15,2014-04-16 19:25:00,
2014-04-16 12:35:00,61.2,52.1,29.89,WNW,285,4.0,7.0,72,0.00,,,0.00,Wunderground v.1.15,2014-04-16 19:35:00,
2014-04-16 12:40:00,61.6,52.5,29.89,WNW,282,3.0,3.0,72,0.00,,,0.00,Wunderground v.1.15,2014-04-16 19:40:00,
2014-04-16 12:50:00,61.7,52.2,29.88,West,269,4.0,4.0,71,0.00,,,0.00,Wunderground v.1.15,2014-04-16 19:50:00,
2014-04-16 13:00:00,61.6,52.9,29.88,NW,311,4.0,5.0,73,0.00,,,0.00,Wunderground v.1.15,2014-04-16 20:00:00,
2014-04-16 13:05:00,61.4,51.5,29.88,WNW,297,5.0,11.0,70,0.00,,,0.00,Wunderground v.1.15,2014-04-16 20:05:00,
2014-04-16 13:15:00,61.2,51.7,29.87,WNW,298,6.0,6.0,71,0.00,,,0.00,Wunderground v.1.15,2014-04-16 20:15:00,
2014-04-16 13:20:00,61.4,52.3,29.87,NW,314,5.0,5.0,72,0.00,,,0.00,Wunderground v.1.15,2014-04-16 20:20:00,
2014-04-16 13:30:00,62.3,52.0,29.87,NNW,327,3.0,4.0,69,0.00,,,0.00,Wunderground v.1.15,2014-04-16 20:30:00,
2014-04-16 13:40:00,62.5,52.6,29.87,West,277,3.0,3.0,70,0.00,,,0.00,Wunderground v.1.15,2014-04-16 20:40:00,
2014-04-16 13:50:00,61.9,52.0,29.87,NNW,333,4.0,4.0,70,0.00,,,0.00,Wunderground v.1.15,2014-04-16 20:50:00,
2014-04-16 13:55:00,61.9,52.4,29.87,WNW,302,3.0,4.0,71,0.00,,,0.00,Wunderground v.1.15,2014-04-16 20:55:00,
2014-04-16 14:05:00,61.7,52.2,29.87,NNW,331,5.0,12.0,71,0.00,,,0.00,Wunderground v.1.15,2014-04-16 21:05:00,
2014-04-16 14:10:00,61.2,51.3,29.87,WNW,296,5.0,7.0,70,0.00,,,0.00,Wunderground v.1.15,2014-04-16 21:10:00,
2014-04-16 14:20:00,60.6,51.5,29.86,NNW,328,6.0,6.0,72,0.00,,,0.00,Wunderground v.1.15,2014-04-16 21:20:00,
2014-04-16 14:30:00,61.1,52.0,29.86,NW,305,3.0,6.0,72,0.00,,,0.00,Wunderground v.1.15,2014-04-16 21:30:00,
2014-04-16 14:35:00,61.5,52.4,29.86,WNW,290,3.0,7.0,72,0.00,,,0.00,Wunderground v.1.15,2014-04-16 21:35:00,
2014-04-16 14:45:00,61.1,51.6,29.86,WNW,294,6.0,7.0,71,0.00,,,0.00,Wunderground v.1.15,2014-04-16 21:45:00,
2014-04-16 14:50:00,60.9,51.4,29.86,WNW,296,5.0,5.0,71,0.00,,,0.00,Wunderground v.1.15,2014-04-16 21:50:00,
2014-04-16 15:00:00,60.5,51.4,29.86,West,266,7.0,7.0,72,0.00,,,0.00,Wunderground v.1.15,2014-04-16 22:00:00,
2014-04-16 15:10:00,61.0,51.5,29.85,NW,311,5.0,5.0,71,0.00,,,0.00,Wunderground v.1.15,2014-04-16 22:10:00,
2014-04-16 15:20:00,61.4,51.5,29.85,NNW,336,4.0,4.0,70,0.00,,,0.00,Wunderground v.1.15,2014-04-16 22:20:00,
2014-04-16 15:30:00,61.3,51.4,29.85,West,275,4.0,4.0,70,0.00,,,0.00,Wunderground v.1.15,2014-04-16 22:30:00,
2014-04-16 15:35:00,61.4,51.5,29.85,SW,218,4.0,4.0,70,0.00,,,0.00,Wunderground v.1.15,2014-04-16 22:35:00,
2014-04-16 15:45:00,61.0,50.8,29.85,NW,317,5.0,8.0,69,0.00,,,0.00,Wunderground v.1.15,2014-04-16 22:45:00,
2014-04-16 15:50:00,61.0,51.1,29.85,West,263,6.0,6.0,70,0.00,,,0.00,Wunderground v.1.15,2014-04-16 22:50:00,
2014-04-16 16:00:00,60.8,51.0,29.84,West,263,5.0,6.0,70,0.00,,,0.00,Wunderground v.1.15,2014-04-16 23:00:00,
2014-04-16 16:10:00,60.4,51.0,29.84,WNW,291,6.0,6.0,71,0.00,,,0.00,Wunderground v.1.15,2014-04-16 23:10:00,
2014-04-16 16:15:00,60.4,50.2,29.84,West,272,7.0,10.0,69,0.00,,,0.00,Wunderground v.1.15,2014-04-16 23:15:00,
2014-04-16 16:25:00,60.0,50.2,29.83,West,270,7.0,9.0,70,0.00,,,0.00,Wunderground v.1.15,2014-04-16 23:25:00,
2014-04-16 16:30:00,60.1,50.7,29.83,West,275,6.0,6.0,71,0.00,,,0.00,Wunderground v.1.15,2014-04-16 23:30:00,
2014-04-16 16:40:00,60.5,50.7,29.83,West,281,4.0,4.0,70,0.00,,,0.00,Wunderground v.1.15,2014-04-16 23:40:00,
2014-04-16 16:50:00,60.0,50.2,29.83,West,281,5.0,6.0,70,0.00,,,0.00,Wunderground v.1.15,2014-04-16 23:50:00,
2014-04-16 17:00:00,59.4,50.4,29.83,West,275,4.0,4.0,72,0.00,,,0.00,Wunderground v.1.15,2014-04-17 00:00:00,
2014-04-16 17:05:00,58.9,49.9,29.83,WNW,300,4.0,4.0,72,0.00,,,0.00,Wunderground v.1.15,2014-04-17 00:05:00,
2014-04-16 17:10:00,58.7,49.7,29.83,NNW,335,5.0,8.0,72,0.00,,,0.00,Wunderground v.1.15,2014-04-17 00:10:00,
2014-04-16 17:20:00,58.4,49.8,29.82,WNW,298,5.0,5.0,73,0.00,,,0.00,Wunderground v.1.15,2014-04-17 00:20:00,
2014-04-16 17:30:00,57.8,49.9,29.83,NNW,331,6.0,6.0,75,0.00,,,0.00,Wunderground v.1.15,2014-04-17 00:30:00,
2014-04-16 17:40:00,57.6,50.1,29.83,NW,306,3.0,3.0,76,0.00,,,0.00,Wunderground v.1.15,2014-04-17 00:40:00,
2014-04-16 17:45:00,57.8,49.6,29.83,NW,310,3.0,9.0,74,0.00,,,0.00,Wunderground v.1.15,2014-04-17 00:45:00,
2014-04-16 17:55:00,57.4,49.5,29.82,NW,308,4.0,4.0,75,0.00,,,0.00,Wunderground v.1.15,2014-04-17 00:55:00,
2014-04-16 18:00:00,57.2,49.7,29.82,NW,313,3.0,12.0,76,0.00,,,0.00,Wunderground v.1.15,2014-04-17 01:00:00,
2014-04-16 18:10:00,56.7,49.9,29.82,WNW,298,4.0,4.0,78,0.00,,,0.00,Wunderground v.1.15,2014-04-17 01:10:00,
2014-04-16 18:20:00,56.4,49.6,29.81,WNW,296,4.0,4.0,78,0.00,,,0.00,Wunderground v.1.15,2014-04-17 01:20:00,
2014-04-16 18:25:00,56.2,49.4,29.81,North,360,4.0,7.0,78,0.00,,,0.00,Wunderground v.1.15,2014-04-17 01:25:00,
2014-04-16 18:30:00,55.9,49.1,29.81,NW,314,3.0,6.0,78,0.00,,,0.00,Wunderground v.1.15,2014-04-17 01:30:00,
2014-04-16 18:40:00,55.2,48.8,29.81,NNW,327,4.0,4.0,79,0.00,,,0.00,Wunderground v.1.15,2014-04-17 01:40:00,
2014-04-16 18:50:00,54.7,48.6,29.81,NNE,33,4.0,4.0,80,0.00,,,0.00,Wunderground v.1.15,2014-04-17 01:50:00,
2014-04-16 19:00:00,54.5,48.8,29.81,WNW,300,3.0,3.0,81,0.00,,,0.00,Wunderground v.1.15,2014-04-17 02:00:00,
2014-04-16 19:10:00,54.0,48.3,29.81,NNW,346,4.0,6.0,81,0.00,,,0.00,Wunderground v.1.15,2014-04-17 02:10:00,
2014-04-16 19:15:00,53.7,48.3,29.81,WNW,291,4.0,6.0,82,0.00,,,0.00,Wunderground v.1.15,2014-04-17 02:15:00,
2014-04-16 19:25:00,53.2,48.2,29.82,NW,320,2.0,3.0,83,0.00,,,0.00,Wunderground v.1.15,2014-04-17 02:25:00,
2014-04-16 19:30:00,53.1,48.4,29.82,West,280,2.0,5.0,84,0.00,,,0.00,Wunderground v.1.15,2014-04-17 02:30:00,